Time;durP1;ratioP1;P1;durP2;ratioP2;P2;SDS_P1;SDS_P2;PMS_P1;PMS_P2;Temp;Humidity;BMP_temperature;BMP_pressure;BME280_temperature;BME280_humidity;BME280_pressure;Samples;Min_cycle;Max_cycle;Signal;HPM_P1;HPM_P2
2022/07/24 00:04:24;;;;;;;8.40;6.30;;;21.60;72.80;;;;;;21089652;28;20238;-68
2022/07/24 00:14:26;;;;;;;10.20;6.47;;;21.50;73.20;;;;;;21089354;28;20213;-66
2022/07/24 00:24:28;;;;;;;8.17;6.40;;;21.50;74.00;;;;;;21088149;28;20229;-66
2022/07/24 00:34:30;;;;;;;9.27;6.70;;;21.40;74.40;;;;;;21087381;28;20220;-66
2022/07/24 00:44:32;;;;;;;7.13;6.43;;;21.20;74.80;;;;;;21085903;28;20238;-65
2022/07/24 00:54:34;;;;;;;9.43;6.20;;;21.10;75.50;;;;;;21085032;28;20304;-66
2022/07/24 01:04:35;;;;;;;8.13;6.50;;;21.00;76.40;;;;;;21084735;28;20234;-67
2022/07/24 01:14:38;;;;;;;7.30;6.07;;;21.00;77.20;;;;;;21084507;28;20236;-68
2022/07/24 01:24:40;;;;;;;8.50;6.50;;;20.90;77.70;;;;;;21083235;28;20228;-66
2022/07/24 01:34:42;;;;;;;9.20;6.00;;;20.70;78.30;;;;;;21081021;28;20748;-67
2022/07/24 01:44:44;;;;;;;10.73;6.23;;;20.80;78.80;;;;;;20995092;28;20246;-66
2022/07/24 01:54:46;;;;;;;8.90;6.50;;;20.60;78.90;;;;;;20997200;28;20286;-66
2022/07/24 02:04:47;;;;;;;6.87;6.10;;;20.60;79.30;;;;;;20996319;28;20320;-66
2022/07/24 02:14:49;;;;;;;9.87;6.30;;;20.60;79.70;;;;;;20996392;28;20213;-66
2022/07/24 02:24:51;;;;;;;7.57;6.17;;;20.60;80.00;;;;;;20995511;28;20240;-66
2022/07/24 02:34:52;;;;;;;9.30;6.33;;;20.50;79.80;;;;;;20995152;28;20212;-67
2022/07/24 02:44:54;;;;;;;9.53;6.23;;;20.50;80.50;;;;;;20994773;28;20603;-67
2022/07/24 02:54:56;;;;;;;8.90;6.20;;;20.40;80.70;;;;;;20994322;28;20205;-66
2022/07/24 03:04:58;;;;;;;7.23;6.37;;;20.40;81.00;;;;;;20993845;28;20264;-66
2022/07/24 03:15:00;;;;;;;6.70;5.77;;;20.30;80.90;;;;;;21005305;28;20200;-67
2022/07/24 03:25:01;;;;;;;9.67;6.20;;;20.20;81.80;;;;;;21008809;28;20276;-67
2022/07/24 03:35:04;;;;;;;6.90;5.83;;;20.10;82.00;;;;;;21008349;28;20212;-65
2022/07/24 03:45:06;;;;;;;8.37;6.17;;;20.10;82.50;;;;;;21004283;28;20246;-66
2022/07/24 03:55:08;;;;;;;8.00;6.53;;;19.90;82.70;;;;;;21006659;28;20217;-64
2022/07/24 04:05:13;;;;;;;9.83;6.50;;;19.80;82.80;;;;;;21005880;28;20318;-67
2022/07/24 04:15:15;;;;;;;6.40;5.70;;;19.80;83.50;;;;;;21005563;28;20287;-63
2022/07/24 04:25:16;;;;;;;6.60;6.00;;;19.70;83.80;;;;;;21004164;28;20234;-66
2022/07/24 04:35:18;;;;;;;8.07;6.53;;;19.70;85.00;;;;;;21003670;28;20215;-63
2022/07/24 04:45:20;;;;;;;7.57;6.10;;;19.80;84.70;;;;;;21002901;28;20340;-67
2022/07/24 04:55:22;;;;;;;7.13;6.00;;;19.90;85.00;;;;;;21002055;28;20215;-67
2022/07/24 05:05:24;;;;;;;11.37;6.63;;;20.00;84.60;;;;;;21001289;28;20669;-67
2022/07/24 05:15:26;;;;;;;8.67;6.80;;;20.10;85.40;;;;;;21000816;28;20619;-67
2022/07/24 05:25:27;;;;;;;7.73;6.03;;;20.30;84.70;;;;;;20999214;28;20238;-68
2022/07/24 05:35:29;;;;;;;6.80;5.80;;;20.40;85.20;;;;;;20997943;28;20212;-65
2022/07/24 05:45:31;;;;;;;7.53;5.87;;;20.60;84.30;;;;;;21071102;28;20242;-65
2022/07/24 05:55:32;;;;;;;10.77;7.10;;;20.80;83.80;;;;;;21054457;28;20216;-68
2022/07/24 06:05:34;;;;;;;6.93;5.53;;;21.00;83.00;;;;;;21070201;28;20778;-72
2022/07/24 06:15:36;;;;;;;7.63;5.33;;;21.10;82.20;;;;;;21029160;28;20199;-72
2022/07/24 06:25:41;;;;;;;7.23;5.37;;;21.30;80.80;;;;;;20996989;28;20729;-71
2022/07/24 06:35:43;;;;;;;8.60;5.50;;;21.50;79.70;;;;;;21000121;28;20735;-72
2022/07/24 06:45:45;;;;;;;6.07;4.97;;;21.70;78.70;;;;;;21099599;28;20237;-73
2022/07/24 06:55:47;;;;;;;5.20;4.70;;;21.90;77.90;;;;;;21177916;28;20202;-72
2022/07/24 07:05:49;;;;;;;7.77;4.90;;;22.20;76.90;;;;;;21116124;28;20318;-74
2022/07/24 07:15:51;;;;;;;7.53;5.53;;;22.50;75.80;;;;;;21085399;28;20286;-72
2022/07/24 07:25:54;;;;;;;6.33;5.23;;;22.70;75.00;;;;;;21080766;28;20241;-70
2022/07/24 07:35:55;;;;;;;5.90;4.90;;;23.00;74.20;;;;;;21040814;28;20198;-72
2022/07/24 07:45:57;;;;;;;5.63;5.13;;;23.30;73.40;;;;;;21171795;28;20245;-71
2022/07/24 07:56:01;;;;;;;7.53;6.70;;;23.60;72.70;;;;;;21174157;28;20220;-71
2022/07/24 08:06:04;;;;;;;7.63;6.10;;;23.90;71.90;;;;;;21174240;28;20261;-70
2022/07/24 08:16:15;;;;;;;8.40;6.13;;;24.20;71.40;;;;;;21173546;28;20584;-71
2022/07/24 08:26:17;;;;;;;10.03;6.83;;;24.40;70.70;;;;;;21172522;28;20243;-72
2022/07/24 08:36:18;;;;;;;8.43;6.13;;;24.70;70.10;;;;;;21171755;28;20206;-71
2022/07/24 08:46:21;;;;;;;7.87;6.20;;;24.90;69.30;;;;;;21170928;28;20329;-71
2022/07/24 08:56:24;;;;;;;7.47;6.07;;;25.20;68.70;;;;;;21152144;28;20198;-71
2022/07/24 09:06:25;;;;;;;7.07;5.70;;;25.50;67.90;;;;;;21167660;28;20320;-71
2022/07/24 09:16:27;;;;;;;6.67;5.20;;;25.80;66.90;;;;;;21168245;28;20206;-70
2022/07/24 09:26:52;;;;;;;6.37;5.47;;;26.00;65.10;;;;;;21167567;28;20229;-71
2022/07/24 09:37:06;;;;;;;7.50;5.70;;;26.20;63.60;;;;;;21141750;28;20199;-70
2022/07/24 09:47:10;;;;;;;5.97;5.07;;;26.40;62.80;;;;;;20995189;28;20249;-70
2022/07/24 09:57:25;;;;;;;7.50;5.80;;;26.70;60.60;;;;;;20997384;28;20650;-71
2022/07/24 10:07:29;;;;;;;8.63;5.53;;;26.90;59.50;;;;;;20996446;28;20242;-71
2022/07/24 10:18:01;;;;;;;8.73;7.40;;;27.10;58.70;;;;;;20995585;28;20563;-72
2022/07/24 10:28:07;;;;;;;8.73;6.87;;;27.30;58.30;;;;;;20995940;28;20234;-70
2022/07/24 10:38:29;;;;;;;8.60;5.70;;;27.50;58.50;;;;;;20994706;28;20723;-72
2022/07/24 10:48:35;;;;;;;7.37;6.57;;;27.40;58.30;;;;;;20994321;28;20243;-72
2022/07/24 10:59:07;;;;;;;6.73;5.73;;;27.50;58.10;;;;;;20994686;28;20581;-72
2022/07/24 11:09:12;;;;;;;6.27;5.33;;;27.80;57.20;;;;;;20993660;28;20270;-72
2022/07/24 11:19:16;;;;;;;6.40;5.68;;;28.00;56.40;;;;;;20993256;28;20302;-72
2022/07/24 11:29:32;;;;;;;7.53;5.53;;;28.20;55.50;;;;;;20993750;28;20254;-72
2022/07/24 11:39:39;;;;;;;8.38;5.55;;;28.40;55.00;;;;;;21007216;28;20286;-71
2022/07/24 11:49:52;;;;;;;7.28;5.85;;;28.50;54.60;;;;;;21004831;28;20239;-72
2022/07/24 11:59:55;;;;;;;5.95;5.35;;;28.70;53.60;;;;;;21006732;28;20221;-72
2022/07/24 12:09:59;;;;;;;7.65;5.00;;;29.00;53.10;;;;;;21005483;28;20244;-72
2022/07/24 12:20:06;;;;;;;9.55;5.78;;;29.30;52.20;;;;;;21004819;28;20208;-72
2022/07/24 12:30:32;;;;;;;7.43;5.20;;;29.40;51.60;;;;;;21004385;28;20231;-72
2022/07/24 12:40:36;;;;;;;10.52;6.28;;;29.60;51.10;;;;;;20995842;28;20262;-71
2022/07/24 12:50:38;;;;;;;8.73;5.70;;;29.70;50.70;;;;;;21002475;28;20235;-72
2022/07/24 13:00:58;;;;;;;7.93;5.57;;;29.50;50.30;;;;;;21001769;28;20241;-72
2022/07/24 13:11:00;;;;;;;7.35;4.90;;;29.30;50.30;;;;;;21001340;28;20227;-72
2022/07/24 13:21:02;;;;;;;9.38;5.55;;;29.30;50.40;;;;;;20999987;28;20207;-72
2022/07/24 13:31:05;;;;;;;7.15;5.65;;;29.20;50.80;;;;;;20998731;28;20227;-72
2022/07/24 13:41:06;;;;;;;6.20;4.95;;;28.90;50.00;;;;;;21000836;28;20289;-72
2022/07/24 13:51:09;;;;;;;6.22;5.30;;;29.10;50.10;;;;;;20994932;28;20227;-72
2022/07/24 14:01:12;;;;;;;8.38;5.15;;;29.30;49.60;;;;;;20996068;28;20211;-72
2022/07/24 14:11:14;;;;;;;7.18;5.82;;;29.30;49.50;;;;;;20996197;28;20322;-73
2022/07/24 14:21:16;;;;;;;8.43;5.60;;;29.30;49.50;;;;;;20995296;28;20293;-72
2022/07/24 14:31:18;;;;;;;9.15;5.53;;;29.50;49.20;;;;;;20995088;28;20242;-71
2022/07/24 14:41:19;;;;;;;5.47;4.97;;;29.90;48.70;;;;;;20994754;28;20733;-71
2022/07/24 14:51:21;;;;;;;6.03;5.38;;;30.10;48.30;;;;;;20993887;28;20231;-70
2022/07/24 15:01:23;;;;;;;7.18;5.05;;;30.60;47.40;;;;;;20993771;28;20213;-71
2022/07/24 15:11:25;;;;;;;5.65;5.07;;;30.80;46.80;;;;;;21006210;28;20659;-71
2022/07/24 15:21:27;;;;;;;6.90;5.32;;;30.20;47.00;;;;;;21009479;28;20286;-71
2022/07/24 15:31:29;;;;;;;6.32;5.72;;;29.70;47.40;;;;;;21008753;28;20732;-72
2022/07/24 15:41:31;;;;;;;5.13;3.97;;;29.70;47.60;;;;;;21007119;28;20234;-68
2022/07/24 15:51:33;;;;;;;5.18;4.60;;;29.40;49.60;;;;;;21004650;28;20226;-70
2022/07/24 16:01:35;;;;;;;20.02;5.97;;;29.20;51.00;;;;;;21006059;28;20294;-70
2022/07/24 16:11:47;;;;;;;9.63;6.38;;;29.30;50.60;;;;;;21006079;28;20598;-70
2022/07/24 16:21:53;;;;;;;5.90;5.40;;;29.50;49.20;;;;;;21004337;28;20209;-70
2022/07/24 16:31:55;;;;;;;5.68;5.18;;;29.70;48.10;;;;;;21004267;28;20322;-71
2022/07/24 16:41:57;;;;;;;6.60;5.90;;;30.10;47.20;;;;;;21001841;28;20235;-71
2022/07/24 16:51:59;;;;;;;7.78;5.35;;;30.50;45.80;;;;;;21002575;28;20270;-70
2022/07/24 17:02:01;;;;;;;6.22;5.32;;;30.20;45.90;;;;;;21001893;28;20218;-71
2022/07/24 17:12:05;;;;;;;5.82;5.13;;;30.00;46.00;;;;;;21001324;28;20816;-71
2022/07/24 17:22:23;;;;;;;5.82;5.22;;;29.80;46.00;;;;;;21000062;28;20238;-70
2022/07/24 17:32:25;;;;;;;11.27;5.22;;;29.70;46.00;;;;;;20998108;28;20230;-74
2022/07/24 17:42:26;;;;;;;6.85;5.55;;;29.60;45.70;;;;;;21025947;28;20262;-72
2022/07/24 17:52:28;;;;;;;6.28;5.30;;;29.50;45.80;;;;;;21076347;28;20319;-70
2022/07/24 18:02:30;;;;;;;4.90;4.47;;;29.40;45.80;;;;;;21078611;28;20207;-72
2022/07/24 18:12:33;;;;;;;5.40;4.53;;;29.20;45.10;;;;;;21080305;28;20784;-71
2022/07/24 18:22:34;;;;;;;5.35;4.38;;;29.10;45.00;;;;;;21037297;28;20552;-71
2022/07/24 18:32:36;;;;;;;6.50;4.25;;;29.00;44.90;;;;;;21078655;28;20260;-71
2022/07/24 18:42:40;;;;;;;5.13;4.60;;;28.70;44.80;;;;;;21000035;28;20227;-72
2022/07/24 18:52:42;;;;;;;5.00;4.50;;;28.60;45.30;;;;;;20993955;28;20296;-71
2022/07/24 19:02:44;;;;;;;7.15;5.05;;;28.40;45.90;;;;;;20993845;28;20210;-72
2022/07/24 19:12:45;;;;;;;5.97;5.05;;;28.10;46.80;;;;;;21016404;28;20230;-72
2022/07/24 19:22:47;;;;;;;8.37;4.87;;;27.90;48.00;;;;;;21086843;28;20202;-72
2022/07/24 19:32:49;;;;;;;5.63;5.07;;;27.60;49.10;;;;;;21155602;28;20690;-75
2022/07/24 19:42:51;;;;;;;6.30;4.87;;;27.40;50.00;;;;;;21157834;28;20233;-70
2022/07/24 19:52:52;;;;;;;8.67;5.60;;;27.20;51.00;;;;;;21109824;28;20234;-68
2022/07/24 20:02:54;;;;;;;6.20;5.43;;;26.90;51.80;;;;;;21087530;28;20206;-64
2022/07/24 20:12:56;;;;;;;8.77;5.80;;;26.60;52.40;;;;;;21087091;28;20236;-65
2022/07/24 20:22:58;;;;;;;8.57;5.90;;;26.40;53.10;;;;;;21086457;28;20567;-69
2022/07/24 20:32:59;;;;;;;9.80;5.97;;;26.10;54.30;;;;;;21085461;28;20231;-65
2022/07/24 20:43:01;;;;;;;7.23;6.10;;;25.90;55.30;;;;;;21084774;28;20227;-66
2022/07/24 20:53:04;;;;;;;7.30;6.27;;;25.70;56.40;;;;;;21083879;28;20633;-68
2022/07/24 21:03:06;;;;;;;9.43;6.47;;;25.40;57.20;;;;;;21082701;28;20294;-68
2022/07/24 21:13:08;;;;;;;8.10;6.60;;;25.30;57.90;;;;;;21082592;28;20234;-66
2022/07/24 21:23:10;;;;;;;8.07;6.60;;;25.00;58.40;;;;;;21068402;28;20207;-63
2022/07/24 21:33:11;;;;;;;8.93;7.20;;;24.90;58.90;;;;;;20994651;28;20607;-63
2022/07/24 21:43:13;;;;;;;7.40;6.40;;;24.70;59.40;;;;;;20996507;28;20729;-66
2022/07/24 21:53:15;;;;;;;8.23;6.47;;;24.50;60.10;;;;;;20995462;28;20231;-63
2022/07/24 22:03:16;;;;;;;8.13;6.73;;;24.40;61.10;;;;;;20994855;28;20204;-64
2022/07/24 22:13:18;;;;;;;8.37;7.20;;;24.20;61.60;;;;;;20994052;28;20234;-63
2022/07/24 22:23:20;;;;;;;18.13;6.60;;;24.10;62.40;;;;;;21054044;28;20209;-66
2022/07/24 22:33:22;;;;;;;8.13;6.90;;;23.90;63.60;;;;;;21074396;28;20235;-68
2022/07/24 22:43:24;;;;;;;8.07;7.10;;;23.80;64.90;;;;;;21076536;28;20256;-70
2022/07/24 22:53:26;;;;;;;8.43;7.13;;;23.70;65.60;;;;;;21075919;28;20238;-67
2022/07/24 23:03:28;;;;;;;8.03;6.47;;;23.50;65.80;;;;;;21075668;28;20658;-68
2022/07/24 23:13:31;;;;;;;7.97;6.83;;;23.30;66.20;;;;;;21075981;28;20234;-65
2022/07/24 23:23:32;;;;;;;7.87;7.07;;;23.30;66.70;;;;;;21077032;28;20658;-63
2022/07/24 23:33:34;;;;;;;7.90;6.90;;;23.10;67.20;;;;;;21090496;28;20253;-68
2022/07/24 23:43:36;;;;;;;7.73;6.70;;;23.00;67.90;;;;;;21092353;28;20598;-63
2022/07/24 23:53:37;;;;;;;8.00;6.97;;;22.80;68.40;;;;;;21091200;28;20234;-67
